sensor_id;sensor_type;location;lat;lon;timestamp;temperature;humidity
39655;DHT22;25336;59.944;11.010;2023-02-01T00:02:24;2.10;69.40
39655;DHT22;25336;59.944;11.010;2023-02-01T00:04:49;2.10;69.50
39655;DHT22;25336;59.944;11.010;2023-02-01T00:07:15;2.10;69.40
39655;DHT22;25336;59.944;11.010;2023-02-01T00:09:40;2.10;69.40
39655;DHT22;25336;59.944;11.010;2023-02-01T00:12:06;2.10;69.40
39655;DHT22;25336;59.944;11.010;2023-02-01T00:14:31;2.20;69.40
39655;DHT22;25336;59.944;11.010;2023-02-01T00:17:04;2.20;69.20
39655;DHT22;25336;59.944;11.010;2023-02-01T00:19:30;2.20;69.10
39655;DHT22;25336;59.944;11.010;2023-02-01T00:21:55;2.20;69.20
39655;DHT22;25336;59.944;11.010;2023-02-01T00:24:21;2.20;69.30
39655;DHT22;25336;59.944;11.010;2023-02-01T00:26:46;2.20;69.30
39655;DHT22;25336;59.944;11.010;2023-02-01T00:29:18;2.20;69.50
39655;DHT22;25336;59.944;11.010;2023-02-01T00:31:44;2.20;69.50
39655;DHT22;25336;59.944;11.010;2023-02-01T00:34:15;2.30;69.50
39655;DHT22;25336;59.944;11.010;2023-02-01T00:36:42;2.30;69.50
39655;DHT22;25336;59.944;11.010;2023-02-01T00:39:08;2.30;69.40
39655;DHT22;25336;59.944;11.010;2023-02-01T00:41:34;2.30;69.30
39655;DHT22;25336;59.944;11.010;2023-02-01T00:44:00;2.40;69.40
39655;DHT22;25336;59.944;11.010;2023-02-01T00:46:27;2.40;69.30
39655;DHT22;25336;59.944;11.010;2023-02-01T00:48:53;2.40;69.30
39655;DHT22;25336;59.944;11.010;2023-02-01T00:51:20;2.50;69.20
39655;DHT22;25336;59.944;11.010;2023-02-01T00:53:46;2.40;69.10
39655;DHT22;25336;59.944;11.010;2023-02-01T00:56:12;2.50;69.10
39655;DHT22;25336;59.944;11.010;2023-02-01T00:58:38;2.50;69.10
39655;DHT22;25336;59.944;11.010;2023-02-01T01:01:11;2.50;69.00
39655;DHT22;25336;59.944;11.010;2023-02-01T01:03:39;2.50;69.10
39655;DHT22;25336;59.944;11.010;2023-02-01T01:06:08;2.60;69.10
39655;DHT22;25336;59.944;11.010;2023-02-01T01:08:35;2.60;69.00
39655;DHT22;25336;59.944;11.010;2023-02-01T01:11:11;2.60;68.90
39655;DHT22;25336;59.944;11.010;2023-02-01T01:13:37;2.60;69.00
39655;DHT22;25336;59.944;11.010;2023-02-01T01:16:05;2.60;68.90
39655;DHT22;25336;59.944;11.010;2023-02-01T01:18:32;3.40;69.30
39655;DHT22;25336;59.944;11.010;2023-02-01T01:20:58;2.60;68.70
39655;DHT22;25336;59.944;11.010;2023-02-01T01:23:24;2.60;68.70
39655;DHT22;25336;59.944;11.010;2023-02-01T01:25:50;2.60;68.60
39655;DHT22;25336;59.944;11.010;2023-02-01T01:28:15;2.60;68.60
39655;DHT22;25336;59.944;11.010;2023-02-01T01:30:41;2.60;68.60
39655;DHT22;25336;59.944;11.010;2023-02-01T01:33:07;2.60;68.60
39655;DHT22;25336;59.944;11.010;2023-02-01T01:35:33;2.60;68.50
39655;DHT22;25336;59.944;11.010;2023-02-01T01:38:00;2.60;68.60
39655;DHT22;25336;59.944;11.010;2023-02-01T01:40:27;2.60;68.50
39655;DHT22;25336;59.944;11.010;2023-02-01T01:42:53;2.60;68.40
39655;DHT22;25336;59.944;11.010;2023-02-01T01:45:31;2.60;68.40
39655;DHT22;25336;59.944;11.010;2023-02-01T01:50:49;2.50;68.50
39655;DHT22;25336;59.944;11.010;2023-02-01T01:53:20;2.50;68.40
39655;DHT22;25336;59.944;11.010;2023-02-01T01:55:49;2.50;68.20
39655;DHT22;25336;59.944;11.010;2023-02-01T01:58:18;2.50;68.20
39655;DHT22;25336;59.944;11.010;2023-02-01T02:00:46;2.40;68.40
39655;DHT22;25336;59.944;11.010;2023-02-01T02:03:17;2.40;68.40
39655;DHT22;25336;59.944;11.010;2023-02-01T02:05:43;2.40;68.50
39655;DHT22;25336;59.944;11.010;2023-02-01T02:08:10;2.40;68.60
39655;DHT22;25336;59.944;11.010;2023-02-01T02:10:36;2.50;68.70
39655;DHT22;25336;59.944;11.010;2023-02-01T02:13:21;2.40;68.70
39655;DHT22;25336;59.944;11.010;2023-02-01T02:18:55;2.40;68.80
39655;DHT22;25336;59.944;11.010;2023-02-01T02:35:45;2.40;68.80
39655;DHT22;25336;59.944;11.010;2023-02-01T02:38:42;2.40;68.70
39655;DHT22;25336;59.944;11.010;2023-02-01T02:44:47;2.40;69.00
39655;DHT22;25336;59.944;11.010;2023-02-01T02:48:07;2.40;69.10
39655;DHT22;25336;59.944;11.010;2023-02-01T02:50:42;2.40;69.70
39655;DHT22;25336;59.944;11.010;2023-02-01T02:56:26;1.90;68.50
39655;DHT22;25336;59.944;11.010;2023-02-01T02:59:13;2.50;68.80
39655;DHT22;25336;59.944;11.010;2023-02-01T03:01:59;2.50;68.80
39655;DHT22;25336;59.944;11.010;2023-02-01T03:04:43;2.50;68.80
39655;DHT22;25336;59.944;11.010;2023-02-01T03:07:15;2.40;68.70
39655;DHT22;25336;59.944;11.010;2023-02-01T03:09:59;2.40;68.80
39655;DHT22;25336;59.944;11.010;2023-02-01T03:12:32;2.50;68.90
39655;DHT22;25336;59.944;11.010;2023-02-01T03:15:18;2.40;68.90
39655;DHT22;25336;59.944;11.010;2023-02-01T03:17:45;2.40;68.90
39655;DHT22;25336;59.944;11.010;2023-02-01T03:20:13;2.50;69.10
39655;DHT22;25336;59.944;11.010;2023-02-01T03:22:40;2.50;69.10
39655;DHT22;25336;59.944;11.010;2023-02-01T03:25:17;2.50;69.00
39655;DHT22;25336;59.944;11.010;2023-02-01T03:27:52;2.50;69.10
39655;DHT22;25336;59.944;11.010;2023-02-01T03:30:22;2.50;69.00
39655;DHT22;25336;59.944;11.010;2023-02-01T03:32:51;3.10;69.40
39655;DHT22;25336;59.944;11.010;2023-02-01T03:35:40;2.60;69.10
39655;DHT22;25336;59.944;11.010;2023-02-01T03:38:18;2.60;69.20
39655;DHT22;25336;59.944;11.010;2023-02-01T03:40:48;2.60;69.10
39655;DHT22;25336;59.944;11.010;2023-02-01T03:43:18;2.60;69.00
39655;DHT22;25336;59.944;11.010;2023-02-01T03:45:48;2.60;69.70
39655;DHT22;25336;59.944;11.010;2023-02-01T03:48:16;2.60;69.00
39655;DHT22;25336;59.944;11.010;2023-02-01T03:50:46;2.70;69.10
39655;DHT22;25336;59.944;11.010;2023-02-01T03:53:17;2.70;69.10
39655;DHT22;25336;59.944;11.010;2023-02-01T03:55:44;2.70;69.10
39655;DHT22;25336;59.944;11.010;2023-02-01T03:58:16;2.70;69.00
39655;DHT22;25336;59.944;11.010;2023-02-01T04:00:53;2.70;69.00
39655;DHT22;25336;59.944;11.010;2023-02-01T04:03:20;2.70;69.00
39655;DHT22;25336;59.944;11.010;2023-02-01T04:05:48;2.70;69.00
39655;DHT22;25336;59.944;11.010;2023-02-01T04:08:13;2.70;69.00
39655;DHT22;25336;59.944;11.010;2023-02-01T04:10:39;2.80;69.10
39655;DHT22;25336;59.944;11.010;2023-02-01T04:13:04;2.70;69.00
39655;DHT22;25336;59.944;11.010;2023-02-01T04:15:30;2.70;69.00
39655;DHT22;25336;59.944;11.010;2023-02-01T04:17:55;2.80;69.00
39655;DHT22;25336;59.944;11.010;2023-02-01T04:20:21;2.80;69.00
39655;DHT22;25336;59.944;11.010;2023-02-01T04:22:47;2.80;69.00
39655;DHT22;25336;59.944;11.010;2023-02-01T04:25:12;2.80;69.00
39655;DHT22;25336;59.944;11.010;2023-02-01T04:27:38;2.80;69.00
39655;DHT22;25336;59.944;11.010;2023-02-01T04:30:04;2.80;69.00
39655;DHT22;25336;59.944;11.010;2023-02-01T04:32:30;2.80;69.00
39655;DHT22;25336;59.944;11.010;2023-02-01T04:34:55;2.80;68.90
39655;DHT22;25336;59.944;11.010;2023-02-01T04:37:21;2.80;68.80
39655;DHT22;25336;59.944;11.010;2023-02-01T04:39:46;2.80;68.80
39655;DHT22;25336;59.944;11.010;2023-02-01T04:42:12;2.80;68.70
39655;DHT22;25336;59.944;11.010;2023-02-01T04:44:37;2.80;68.70
39655;DHT22;25336;59.944;11.010;2023-02-01T04:47:04;2.70;68.60
39655;DHT22;25336;59.944;11.010;2023-02-01T04:49:30;2.70;68.70
39655;DHT22;25336;59.944;11.010;2023-02-01T04:51:56;2.70;68.80
39655;DHT22;25336;59.944;11.010;2023-02-01T04:54:21;2.70;68.80
39655;DHT22;25336;59.944;11.010;2023-02-01T04:56:47;2.60;68.90
39655;DHT22;25336;59.944;11.010;2023-02-01T04:59:13;2.60;68.90
39655;DHT22;25336;59.944;11.010;2023-02-01T05:01:38;2.60;69.00
39655;DHT22;25336;59.944;11.010;2023-02-01T05:04:04;2.60;69.00
39655;DHT22;25336;59.944;11.010;2023-02-01T05:06:30;2.60;69.10
39655;DHT22;25336;59.944;11.010;2023-02-01T05:08:55;2.50;69.00
39655;DHT22;25336;59.944;11.010;2023-02-01T05:11:21;2.50;69.00
39655;DHT22;25336;59.944;11.010;2023-02-01T05:14:05;2.50;68.90
39655;DHT22;25336;59.944;11.010;2023-02-01T05:16:31;2.50;69.00
39655;DHT22;25336;59.944;11.010;2023-02-01T05:18:56;2.50;68.90
39655;DHT22;25336;59.944;11.010;2023-02-01T05:21:22;2.40;69.00
39655;DHT22;25336;59.944;11.010;2023-02-01T05:23:48;2.40;69.10
39655;DHT22;25336;59.944;11.010;2023-02-01T05:26:32;2.40;69.30
39655;DHT22;25336;59.944;11.010;2023-02-01T05:28:58;2.30;69.20
39655;DHT22;25336;59.944;11.010;2023-02-01T05:31:24;2.30;69.30
39655;DHT22;25336;59.944;11.010;2023-02-01T05:33:49;2.20;69.10
39655;DHT22;25336;59.944;11.010;2023-02-01T05:36:15;2.20;69.20
39655;DHT22;25336;59.944;11.010;2023-02-01T05:38:41;2.20;69.30
39655;DHT22;25336;59.944;11.010;2023-02-01T05:41:07;2.10;69.40
39655;DHT22;25336;59.944;11.010;2023-02-01T05:43:32;2.10;69.30
39655;DHT22;25336;59.944;11.010;2023-02-01T05:45:59;2.10;69.50
39655;DHT22;25336;59.944;11.010;2023-02-01T05:48:24;2.00;69.30
39655;DHT22;25336;59.944;11.010;2023-02-01T05:50:50;2.00;69.50
39655;DHT22;25336;59.944;11.010;2023-02-01T05:53:15;2.00;69.70
39655;DHT22;25336;59.944;11.010;2023-02-01T05:55:41;1.90;69.60
39655;DHT22;25336;59.944;11.010;2023-02-01T05:58:07;1.90;69.40
39655;DHT22;25336;59.944;11.010;2023-02-01T06:00:33;1.40;69.00
39655;DHT22;25336;59.944;11.010;2023-02-01T06:02:59;1.90;69.50
39655;DHT22;25336;59.944;11.010;2023-02-01T06:05:24;1.90;69.70
39655;DHT22;25336;59.944;11.010;2023-02-01T06:07:50;1.90;69.80
39655;DHT22;25336;59.944;11.010;2023-02-01T06:10:17;2.80;70.50
39655;DHT22;25336;59.944;11.010;2023-02-01T06:12:43;1.80;69.80
39655;DHT22;25336;59.944;11.010;2023-02-01T06:15:10;2.70;70.50
39655;DHT22;25336;59.944;11.010;2023-02-01T06:17:36;1.80;70.00
39655;DHT22;25336;59.944;11.010;2023-02-01T06:20:02;1.80;70.00
39655;DHT22;25336;59.944;11.010;2023-02-01T06:22:28;1.80;70.10
39655;DHT22;25336;59.944;11.010;2023-02-01T06:24:54;1.80;70.00
39655;DHT22;25336;59.944;11.010;2023-02-01T06:27:19;1.70;70.00
39655;DHT22;25336;59.944;11.010;2023-02-01T06:29:45;1.70;70.20
39655;DHT22;25336;59.944;11.010;2023-02-01T06:32:10;1.70;70.10
39655;DHT22;25336;59.944;11.010;2023-02-01T06:34:36;1.70;70.10
39655;DHT22;25336;59.944;11.010;2023-02-01T06:37:02;1.70;70.10
39655;DHT22;25336;59.944;11.010;2023-02-01T06:39:28;2.30;70.50
39655;DHT22;25336;59.944;11.010;2023-02-01T06:41:53;1.70;70.10
39655;DHT22;25336;59.944;11.010;2023-02-01T06:44:19;1.70;70.30
39655;DHT22;25336;59.944;11.010;2023-02-01T06:46:46;1.70;70.30
39655;DHT22;25336;59.944;11.010;2023-02-01T06:49:11;1.60;70.40
39655;DHT22;25336;59.944;11.010;2023-02-01T06:51:37;1.60;70.40
39655;DHT22;25336;59.944;11.010;2023-02-01T06:54:02;1.60;70.50
39655;DHT22;25336;59.944;11.010;2023-02-01T06:56:28;1.60;70.50
39655;DHT22;25336;59.944;11.010;2023-02-01T06:58:54;1.60;70.50
39655;DHT22;25336;59.944;11.010;2023-02-01T07:01:20;1.60;70.60
39655;DHT22;25336;59.944;11.010;2023-02-01T07:03:49;1.60;70.70
39655;DHT22;25336;59.944;11.010;2023-02-01T07:06:16;1.60;70.70
39655;DHT22;25336;59.944;11.010;2023-02-01T07:08:42;1.60;70.70
39655;DHT22;25336;59.944;11.010;2023-02-01T07:11:11;1.60;70.50
39655;DHT22;25336;59.944;11.010;2023-02-01T07:13:38;1.60;70.60
39655;DHT22;25336;59.944;11.010;2023-02-01T07:16:10;1.60;70.50
39655;DHT22;25336;59.944;11.010;2023-02-01T07:18:36;1.60;70.50
39655;DHT22;25336;59.944;11.010;2023-02-01T07:21:02;1.60;70.40
39655;DHT22;25336;59.944;11.010;2023-02-01T07:23:28;1.60;70.40
39655;DHT22;25336;59.944;11.010;2023-02-01T07:25:58;1.60;70.40
39655;DHT22;25336;59.944;11.010;2023-02-01T07:28:24;1.60;70.40
39655;DHT22;25336;59.944;11.010;2023-02-01T07:30:51;1.60;70.30
39655;DHT22;25336;59.944;11.010;2023-02-01T07:33:21;1.60;70.30
39655;DHT22;25336;59.944;11.010;2023-02-01T07:35:48;2.60;70.90
39655;DHT22;25336;59.944;11.010;2023-02-01T07:38:13;1.60;70.00
39655;DHT22;25336;59.944;11.010;2023-02-01T07:40:40;1.50;69.80
39655;DHT22;25336;59.944;11.010;2023-02-01T07:43:05;1.50;69.90
39655;DHT22;25336;59.944;11.010;2023-02-01T07:45:33;1.50;69.90
39655;DHT22;25336;59.944;11.010;2023-02-01T07:47:58;1.50;69.90
39655;DHT22;25336;59.944;11.010;2023-02-01T07:50:24;1.40;69.80
39655;DHT22;25336;59.944;11.010;2023-02-01T07:52:49;1.40;69.90
39655;DHT22;25336;59.944;11.010;2023-02-01T07:55:15;1.40;70.00
39655;DHT22;25336;59.944;11.010;2023-02-01T07:57:41;1.40;70.00
39655;DHT22;25336;59.944;11.010;2023-02-01T08:00:08;1.40;70.20
39655;DHT22;25336;59.944;11.010;2023-02-01T08:02:52;1.40;70.10
39655;DHT22;25336;59.944;11.010;2023-02-01T08:05:18;1.40;70.00
39655;DHT22;25336;59.944;11.010;2023-02-01T08:07:43;1.40;69.70
39655;DHT22;25336;59.944;11.010;2023-02-01T08:10:09;1.30;69.70
39655;DHT22;25336;59.944;11.010;2023-02-01T08:12:37;1.30;69.80
39655;DHT22;25336;59.944;11.010;2023-02-01T08:15:03;1.40;69.90
39655;DHT22;25336;59.944;11.010;2023-02-01T08:17:29;1.30;69.90
39655;DHT22;25336;59.944;11.010;2023-02-01T08:19:55;1.30;70.40
39655;DHT22;25336;59.944;11.010;2023-02-01T08:22:21;1.30;69.90
39655;DHT22;25336;59.944;11.010;2023-02-01T08:24:49;1.30;70.00
39655;DHT22;25336;59.944;11.010;2023-02-01T08:27:16;1.40;70.00
39655;DHT22;25336;59.944;11.010;2023-02-01T08:29:41;1.40;69.90
39655;DHT22;25336;59.944;11.010;2023-02-01T08:32:07;1.30;69.80
39655;DHT22;25336;59.944;11.010;2023-02-01T08:34:32;1.30;70.00
39655;DHT22;25336;59.944;11.010;2023-02-01T08:36:58;2.50;70.70
39655;DHT22;25336;59.944;11.010;2023-02-01T08:39:25;1.40;69.80
39655;DHT22;25336;59.944;11.010;2023-02-01T08:41:50;1.30;69.80
39655;DHT22;25336;59.944;11.010;2023-02-01T08:44:34;1.30;69.90
39655;DHT22;25336;59.944;11.010;2023-02-01T08:47:01;1.40;70.10
39655;DHT22;25336;59.944;11.010;2023-02-01T08:49:26;1.30;70.00
39655;DHT22;25336;59.944;11.010;2023-02-01T08:51:52;1.40;70.00
39655;DHT22;25336;59.944;11.010;2023-02-01T08:54:17;1.30;70.00
39655;DHT22;25336;59.944;11.010;2023-02-01T08:56:43;1.40;70.10
39655;DHT22;25336;59.944;11.010;2023-02-01T08:59:08;1.30;70.10
39655;DHT22;25336;59.944;11.010;2023-02-01T09:01:34;1.50;70.10
39655;DHT22;25336;59.944;11.010;2023-02-01T09:04:00;1.30;70.00
39655;DHT22;25336;59.944;11.010;2023-02-01T09:06:25;1.30;69.80
39655;DHT22;25336;59.944;11.010;2023-02-01T09:08:51;1.40;69.80
39655;DHT22;25336;59.944;11.010;2023-02-01T09:11:17;1.30;69.80
39655;DHT22;25336;59.944;11.010;2023-02-01T09:13:44;1.30;69.70
39655;DHT22;25336;59.944;11.010;2023-02-01T09:16:10;1.30;69.90
39655;DHT22;25336;59.944;11.010;2023-02-01T09:18:36;1.40;70.10
39655;DHT22;25336;59.944;11.010;2023-02-01T09:21:08;1.30;70.10
39655;DHT22;25336;59.944;11.010;2023-02-01T09:23:34;1.40;70.20
39655;DHT22;25336;59.944;11.010;2023-02-01T09:26:04;1.40;70.00
39655;DHT22;25336;59.944;11.010;2023-02-01T09:28:30;1.40;70.10
39655;DHT22;25336;59.944;11.010;2023-02-01T09:30:56;1.40;70.00
39655;DHT22;25336;59.944;11.010;2023-02-01T09:33:23;1.40;70.20
39655;DHT22;25336;59.944;11.010;2023-02-01T09:36:03;1.40;70.20
39655;DHT22;25336;59.944;11.010;2023-02-01T09:38:29;1.40;70.20
39655;DHT22;25336;59.944;11.010;2023-02-01T09:40:55;1.50;70.20
39655;DHT22;25336;59.944;11.010;2023-02-01T09:43:48;1.70;70.30
39655;DHT22;25336;59.944;11.010;2023-02-01T09:46:32;1.50;70.30
39655;DHT22;25336;59.944;11.010;2023-02-01T09:49:03;1.60;70.20
39655;DHT22;25336;59.944;11.010;2023-02-01T09:51:40;1.60;69.80
39655;DHT22;25336;59.944;11.010;2023-02-01T09:54:17;1.70;69.80
39655;DHT22;25336;59.944;11.010;2023-02-01T09:56:55;1.60;69.70
39655;DHT22;25336;59.944;11.010;2023-02-01T09:59:34;1.70;69.70
39655;DHT22;25336;59.944;11.010;2023-02-01T10:02:08;1.70;69.60
39655;DHT22;25336;59.944;11.010;2023-02-01T10:04:35;2.60;70.00
39655;DHT22;25336;59.944;11.010;2023-02-01T10:15:51;1.70;69.20
39655;DHT22;25336;59.944;11.010;2023-02-01T10:18:35;1.70;69.10
39655;DHT22;25336;59.944;11.010;2023-02-01T10:26:24;1.70;69.00
39655;DHT22;25336;59.944;11.010;2023-02-01T10:28:53;1.70;69.00
39655;DHT22;25336;59.944;11.010;2023-02-01T10:31:24;1.70;69.10
39655;DHT22;25336;59.944;11.010;2023-02-01T10:33:59;2.40;69.40
39655;DHT22;25336;59.944;11.010;2023-02-01T10:36:32;1.70;69.00
39655;DHT22;25336;59.944;11.010;2023-02-01T10:39:02;1.70;68.90
39655;DHT22;25336;59.944;11.010;2023-02-01T10:41:36;1.70;68.90
39655;DHT22;25336;59.944;11.010;2023-02-01T10:44:07;1.70;68.80
39655;DHT22;25336;59.944;11.010;2023-02-01T10:46:35;1.70;68.90
39655;DHT22;25336;59.944;11.010;2023-02-01T10:49:03;1.70;68.80
39655;DHT22;25336;59.944;11.010;2023-02-01T10:54:21;1.70;68.90
39655;DHT22;25336;59.944;11.010;2023-02-01T10:56:49;1.70;68.90
39655;DHT22;25336;59.944;11.010;2023-02-01T10:59:20;1.70;68.80
39655;DHT22;25336;59.944;11.010;2023-02-01T11:01:49;1.70;69.00
39655;DHT22;25336;59.944;11.010;2023-02-01T11:04:19;1.70;68.90
39655;DHT22;25336;59.944;11.010;2023-02-01T11:06:49;1.70;68.80
39655;DHT22;25336;59.944;11.010;2023-02-01T11:09:22;1.70;68.90
39655;DHT22;25336;59.944;11.010;2023-02-01T11:14:22;1.70;69.00
39655;DHT22;25336;59.944;11.010;2023-02-01T11:16:59;1.70;69.00
39655;DHT22;25336;59.944;11.010;2023-02-01T11:19:26;1.70;68.90
39655;DHT22;25336;59.944;11.010;2023-02-01T11:21:54;2.40;69.30
39655;DHT22;25336;59.944;11.010;2023-02-01T11:24:29;1.70;68.80
39655;DHT22;25336;59.944;11.010;2023-02-01T11:26:57;1.70;68.90
39655;DHT22;25336;59.944;11.010;2023-02-01T11:29:24;1.70;68.90
39655;DHT22;25336;59.944;11.010;2023-02-01T11:31:56;1.70;68.70
39655;DHT22;25336;59.944;11.010;2023-02-01T11:34:30;1.70;68.70
39655;DHT22;25336;59.944;11.010;2023-02-01T11:37:00;1.70;68.70
39655;DHT22;25336;59.944;11.010;2023-02-01T11:39:33;1.70;68.50
39655;DHT22;25336;59.944;11.010;2023-02-01T11:42:17;1.70;68.40
39655;DHT22;25336;59.944;11.010;2023-02-01T11:44:45;1.70;68.50
39655;DHT22;25336;59.944;11.010;2023-02-01T11:47:31;1.70;68.40
39655;DHT22;25336;59.944;11.010;2023-02-01T11:50:12;1.70;68.40
39655;DHT22;25336;59.944;11.010;2023-02-01T11:53:01;1.70;68.40
39655;DHT22;25336;59.944;11.010;2023-02-01T11:55:56;1.70;68.20
39655;DHT22;25336;59.944;11.010;2023-02-01T11:58:56;1.70;68.30
39655;DHT22;25336;59.944;11.010;2023-02-01T12:06:55;1.70;68.40
39655;DHT22;25336;59.944;11.010;2023-02-01T12:17:51;1.70;68.00
39655;DHT22;25336;59.944;11.010;2023-02-01T12:20:22;1.60;67.80
39655;DHT22;25336;59.944;11.010;2023-02-01T12:23:14;1.60;67.70
39655;DHT22;25336;59.944;11.010;2023-02-01T12:25:46;1.60;67.90
39655;DHT22;25336;59.944;11.010;2023-02-01T12:31:27;1.50;67.90
39655;DHT22;25336;59.944;11.010;2023-02-01T12:34:32;1.50;68.00
39655;DHT22;25336;59.944;11.010;2023-02-01T12:39:49;1.50;67.90
39655;DHT22;25336;59.944;11.010;2023-02-01T12:42:22;1.70;68.10
39655;DHT22;25336;59.944;11.010;2023-02-01T12:45:01;2.10;68.30
39655;DHT22;25336;59.944;11.010;2023-02-01T12:50:26;1.50;67.70
39655;DHT22;25336;59.944;11.010;2023-02-01T12:53:08;1.40;67.40
39655;DHT22;25336;59.944;11.010;2023-02-01T12:55:41;1.40;67.40
39655;DHT22;25336;59.944;11.010;2023-02-01T12:58:21;1.40;67.40
39655;DHT22;25336;59.944;11.010;2023-02-01T13:01:22;1.30;67.30
39655;DHT22;25336;59.944;11.010;2023-02-01T13:04:14;1.30;67.40
39655;DHT22;25336;59.944;11.010;2023-02-01T13:06:50;1.30;67.40
39655;DHT22;25336;59.944;11.010;2023-02-01T13:10:08;1.30;67.40
39655;DHT22;25336;59.944;11.010;2023-02-01T13:12:28;1.20;67.30
39655;DHT22;25336;59.944;11.010;2023-02-01T13:17:31;1.20;67.20
39655;DHT22;25336;59.944;11.010;2023-02-01T13:20:34;1.20;67.10
39655;DHT22;25336;59.944;11.010;2023-02-01T13:23:09;1.20;66.90
39655;DHT22;25336;59.944;11.010;2023-02-01T13:25:49;1.10;66.70
39655;DHT22;25336;59.944;11.010;2023-02-01T13:28:28;1.10;66.60
39655;DHT22;25336;59.944;11.010;2023-02-01T13:41:56;0.20;66.30
39655;DHT22;25336;59.944;11.010;2023-02-01T13:44:34;0.80;66.60
39655;DHT22;25336;59.944;11.010;2023-02-01T13:47:09;0.70;66.50
39655;DHT22;25336;59.944;11.010;2023-02-01T13:49:40;0.70;66.50
39655;DHT22;25336;59.944;11.010;2023-02-01T13:52:17;0.70;66.60
39655;DHT22;25336;59.944;11.010;2023-02-01T13:54:46;0.60;66.70
39655;DHT22;25336;59.944;11.010;2023-02-01T13:57:34;0.60;66.50
39655;DHT22;25336;59.944;11.010;2023-02-01T14:03:18;0.60;66.50
39655;DHT22;25336;59.944;11.010;2023-02-01T14:08:21;0.50;66.50
39655;DHT22;25336;59.944;11.010;2023-02-01T14:10:52;0.50;66.60
39655;DHT22;25336;59.944;11.010;2023-02-01T14:13:37;0.50;66.60
39655;DHT22;25336;59.944;11.010;2023-02-01T14:27:02;0.40;66.70
39655;DHT22;25336;59.944;11.010;2023-02-01T14:31:40;0.30;66.70
39655;DHT22;25336;59.944;11.010;2023-02-01T14:34:19;0.30;66.70
39655;DHT22;25336;59.944;11.010;2023-02-01T14:36:55;0.30;66.70
39655;DHT22;25336;59.944;11.010;2023-02-01T14:39:24;0.50;66.70
39655;DHT22;25336;59.944;11.010;2023-02-01T14:41:54;0.30;66.70
39655;DHT22;25336;59.944;11.010;2023-02-01T14:44:30;0.20;66.70
39655;DHT22;25336;59.944;11.010;2023-02-01T14:49:47;0.20;66.50
39655;DHT22;25336;59.944;11.010;2023-02-01T14:52:17;0.10;66.50
39655;DHT22;25336;59.944;11.010;2023-02-01T14:54:54;0.10;66.60
39655;DHT22;25336;59.944;11.010;2023-02-01T14:57:25;0.10;66.70
39655;DHT22;25336;59.944;11.010;2023-02-01T14:59:54;0.10;66.80
39655;DHT22;25336;59.944;11.010;2023-02-01T15:02:26;0.50;67.20
39655;DHT22;25336;59.944;11.010;2023-02-01T15:04:56;0.00;66.70
39655;DHT22;25336;59.944;11.010;2023-02-01T15:07:23;0.00;66.90
39655;DHT22;25336;59.944;11.010;2023-02-01T15:09:50;0.00;66.80
39655;DHT22;25336;59.944;11.010;2023-02-01T15:12:18;0.00;66.80
39655;DHT22;25336;59.944;11.010;2023-02-01T15:17:37;0.00;67.00
39655;DHT22;25336;59.944;11.010;2023-02-01T15:20:17;-0.10;67.70
39655;DHT22;25336;59.944;11.010;2023-02-01T15:22:57;-0.10;67.00
39655;DHT22;25336;59.944;11.010;2023-02-01T15:25:28;-0.10;67.00
39655;DHT22;25336;59.944;11.010;2023-02-01T15:27:55;-0.10;67.00
39655;DHT22;25336;59.944;11.010;2023-02-01T15:30:24;-0.10;67.10
39655;DHT22;25336;59.944;11.010;2023-02-01T15:32:51;-0.10;67.10
39655;DHT22;25336;59.944;11.010;2023-02-01T15:35:37;-0.10;67.00
39655;DHT22;25336;59.944;11.010;2023-02-01T15:38:37;-0.10;67.10
39655;DHT22;25336;59.944;11.010;2023-02-01T15:41:07;0.00;67.20
39655;DHT22;25336;59.944;11.010;2023-02-01T15:43:40;-0.10;67.10
39655;DHT22;25336;59.944;11.010;2023-02-01T15:46:10;-0.10;67.10
39655;DHT22;25336;59.944;11.010;2023-02-01T15:48:51;-0.10;67.00
39655;DHT22;25336;59.944;11.010;2023-02-01T15:51:27;-0.10;66.90
39655;DHT22;25336;59.944;11.010;2023-02-01T15:53:59;0.00;67.00
39655;DHT22;25336;59.944;11.010;2023-02-01T15:56:35;0.00;66.90
39655;DHT22;25336;59.944;11.010;2023-02-01T15:59:02;0.00;66.90
39655;DHT22;25336;59.944;11.010;2023-02-01T16:01:30;0.00;66.90
39655;DHT22;25336;59.944;11.010;2023-02-01T16:04:25;0.00;66.90
39655;DHT22;25336;59.944;11.010;2023-02-01T16:06:55;-0.10;66.70
39655;DHT22;25336;59.944;11.010;2023-02-01T16:09:23;-0.10;66.70
39655;DHT22;25336;59.944;11.010;2023-02-01T16:11:56;-0.10;66.70
39655;DHT22;25336;59.944;11.010;2023-02-01T16:14:22;-0.10;66.50
39655;DHT22;25336;59.944;11.010;2023-02-01T16:16:49;1.00;67.10
39655;DHT22;25336;59.944;11.010;2023-02-01T16:19:15;-0.10;66.20
39655;DHT22;25336;59.944;11.010;2023-02-01T16:21:41;-0.20;66.10
39655;DHT22;25336;59.944;11.010;2023-02-01T16:24:07;-0.20;66.00
39655;DHT22;25336;59.944;11.010;2023-02-01T16:26:33;-0.20;66.00
39655;DHT22;25336;59.944;11.010;2023-02-01T16:29:00;-0.30;66.00
39655;DHT22;25336;59.944;11.010;2023-02-01T16:31:30;-0.30;66.70
39655;DHT22;25336;59.944;11.010;2023-02-01T16:33:56;-0.40;66.00
39655;DHT22;25336;59.944;11.010;2023-02-01T16:36:22;-0.30;66.00
39655;DHT22;25336;59.944;11.010;2023-02-01T16:38:49;-0.50;66.00
39655;DHT22;25336;59.944;11.010;2023-02-01T16:41:19;-0.50;66.00
39655;DHT22;25336;59.944;11.010;2023-02-01T16:43:45;-0.50;66.00
39655;DHT22;25336;59.944;11.010;2023-02-01T16:46:19;-0.60;66.00
39655;DHT22;25336;59.944;11.010;2023-02-01T16:48:55;-0.60;66.00
39655;DHT22;25336;59.944;11.010;2023-02-01T16:51:23;-0.60;66.00
39655;DHT22;25336;59.944;11.010;2023-02-01T16:53:49;-0.70;65.90
39655;DHT22;25336;59.944;11.010;2023-02-01T16:56:20;-0.70;65.90
39655;DHT22;25336;59.944;11.010;2023-02-01T16:58:47;-0.70;65.90
39655;DHT22;25336;59.944;11.010;2023-02-01T17:01:14;0.20;66.50
39655;DHT22;25336;59.944;11.010;2023-02-01T17:03:40;-0.80;66.00
39655;DHT22;25336;59.944;11.010;2023-02-01T17:06:08;-0.60;66.10
39655;DHT22;25336;59.944;11.010;2023-02-01T17:08:36;-0.90;66.00
39655;DHT22;25336;59.944;11.010;2023-02-01T17:11:03;-0.90;66.00
39655;DHT22;25336;59.944;11.010;2023-02-01T17:13:29;0.10;66.70
39655;DHT22;25336;59.944;11.010;2023-02-01T17:15:59;-1.00;65.90
39655;DHT22;25336;59.944;11.010;2023-02-01T17:18:27;-1.00;66.00
39655;DHT22;25336;59.944;11.010;2023-02-01T17:20:57;-1.00;66.00
39655;DHT22;25336;59.944;11.010;2023-02-01T17:23:23;-0.40;66.40
39655;DHT22;25336;59.944;11.010;2023-02-01T17:25:48;-1.10;65.20
39655;DHT22;25336;59.944;11.010;2023-02-01T17:28:14;-1.10;66.00
39655;DHT22;25336;59.944;11.010;2023-02-01T17:30:40;-1.10;66.00
39655;DHT22;25336;59.944;11.010;2023-02-01T17:33:30;-1.20;66.00
39655;DHT22;25336;59.944;11.010;2023-02-01T17:35:56;-1.20;66.10
39655;DHT22;25336;59.944;11.010;2023-02-01T17:38:23;-1.20;66.10